Airport View

Enter AWOS ICAO identifier for current METAR.

ex. KFNL

CYXX 261100Z 00000KT 15SM BKN180 12/10 A2989 RMK AC6 SLP122

26 Jun 2019 11:49

Other Area AWOS: KBLI - CWMM - CWWK - CWZA

TAF CYXX 260538Z 2606/2706 VRB03KT P6SM FEW050 BKN180 FM260900 VRB03KT P6SM FEW040 BKN180 TEMPO 2609/2621 P6SM VCSH BKN040 BECMG 2616/2618 22008KT FM262100 24008KT P6SM SCT060 TEMPO 2621/2703 P6SM VCTS BKN060CB FM270300 23008KT P6SM SCT180 RMK NXT FCST BY 261200Z